Deerfield, Missouri
Current Conditions -  °F | °C
As of 10:55 AM on Wednesday 22 Oct 2014 (Local Time) from KPTS Reporting Station
Clear Clear  
Wind Chill: 64°   Ceiling: Unl
Heat Index: 64°   Visibility: 10mi
Dew Point: 52°   Wind: 8mph
Humidity: 66%   Direction: 150°SSE
Pressure: 30.2"   Gusts: NA
Location:  37.84°N, 94.51°W
Report Text: KPTS 221555Z AUTO 15007KT 10SM CLR 18/11 A3020 RMK AO2 T01780113
Loading
Personal Weather Stations






























Interactive Weather Map
Tropical Storm Tracking
New forecast layout! Learn more

10-Day Weather Forecast

Advertisements
Track Severe Weather on mobile